Time;durP1;ratioP1;P1;durP2;ratioP2;P2;SDS_P1;SDS_P2;PMS_P1;PMS_P2;Temp;Humidity;BMP_temperature;BMP_pressure;BME280_temperature;BME280_humidity;BME280_pressure;Samples;Min_cycle;Max_cycle;Signal;HPM_P1;HPM_P2
2023/10/10 00:00:47;;;;;;;8.88;5.25;;;;;;;14.19;59.87;95156.59;5029968;28;20250;-72
2023/10/10 00:03:12;;;;;;;10.13;4.93;;;;;;;14.22;59.52;95145.56;5048962;28;20527;-72
2023/10/10 00:05:40;;;;;;;10.43;5.32;;;;;;;14.23;59.49;95144.53;5041322;28;20237;-72
2023/10/10 00:08:09;;;;;;;11.80;4.32;;;;;;;14.32;58.29;95137.88;5034481;28;20262;-71
2023/10/10 00:10:35;;;;;;;8.50;5.10;;;;;;;14.32;58.76;95143.19;5044442;28;20536;-70
2023/10/10 00:13:04;;;;;;;11.25;4.18;;;;;;;14.34;59.10;95128.69;5048871;28;20465;-72
2023/10/10 00:15:34;;;;;;;9.95;5.65;;;;;;;14.42;59.17;95132.06;5048613;28;20178;-73
2023/10/10 00:18:06;;;;;;;9.88;3.78;;;;;;;14.42;58.96;95126.78;5048740;28;20202;-72
2023/10/10 00:20:40;;;;;;;12.13;4.55;;;;;;;14.42;59.53;95124.94;5049027;28;20222;-72
2023/10/10 00:23:10;;;;;;;10.35;4.80;;;;;;;14.34;59.64;95107.50;5048517;28;20517;-72
2023/10/10 00:25:37;;;;;;;9.52;4.60;;;;;;;14.34;59.76;95112.00;5048851;28;20175;-72
2023/10/10 00:28:08;;;;;;;12.60;4.72;;;;;;;14.29;59.74;95117.13;5040066;28;20195;-72
2023/10/10 00:30:34;;;;;;;10.77;4.93;;;;;;;14.30;60.10;95116.91;5028382;28;20417;-72
2023/10/10 00:33:04;;;;;;;16.08;4.95;;;;;;;14.38;59.42;95115.78;5028929;28;20182;-72
2023/10/10 00:35:31;;;;;;;16.90;4.63;;;;;;;14.38;59.81;95109.69;5028997;28;20596;-73
2023/10/10 00:37:57;;;;;;;10.40;4.63;;;;;;;14.46;59.91;95117.31;5029116;28;20262;-72
2023/10/10 00:40:30;;;;;;;8.95;4.13;;;;;;;14.51;59.72;95120.09;5028780;28;20183;-73
2023/10/10 00:42:58;;;;;;;7.97;4.20;;;;;;;14.49;59.84;95125.63;5029078;28;20198;-73
2023/10/10 00:45:27;;;;;;;7.50;3.40;;;;;;;14.42;58.29;95113.53;5028699;28;20176;-72
2023/10/10 00:47:54;;;;;;;6.45;3.30;;;;;;;14.34;58.49;95110.16;5028846;28;20558;-72
2023/10/10 00:50:25;;;;;;;6.63;3.40;;;;;;;14.46;58.34;95131.38;5031838;28;20542;-72
2023/10/10 00:53:00;;;;;;;11.38;3.70;;;;;;;14.52;58.22;95124.38;5050974;28;20288;-72
2023/10/10 00:55:26;;;;;;;8.10;3.33;;;;;;;14.55;58.62;95127.34;5051690;28;20445;-72
2023/10/10 00:57:55;;;;;;;7.00;3.40;;;;;;;14.61;58.73;95130.94;5052324;28;20179;-74
2023/10/10 01:00:25;;;;;;;7.43;3.70;;;;;;;14.58;58.96;95126.91;5019020;28;20194;-72
2023/10/10 01:02:51;;;;;;;8.13;3.97;;;;;;;14.52;59.03;95109.28;5051772;28;20411;-72
2023/10/10 01:05:23;;;;;;;14.20;5.95;;;;;;;14.47;59.63;95114.44;5050887;28;20894;-72
2023/10/10 01:07:51;;;;;;;16.48;6.60;;;;;;;14.66;60.47;95110.66;5051070;28;20419;-72
2023/10/10 01:10:17;;;;;;;11.35;5.07;;;;;;;14.90;59.96;95110.66;5052067;28;20197;-72
2023/10/10 01:12:46;;;;;;;18.02;8.35;;;;;;;15.06;60.73;95107.31;5050675;28;20424;-72
2023/10/10 01:15:57;;;;;;;23.77;11.90;;;;;;;15.19;60.28;95085.88;5050723;28;20518;-72
2023/10/10 01:18:03;;;;;;;19.73;10.32;;;;;;;15.63;59.93;95099.50;5039899;28;20842;-72
2023/10/10 01:20:35;;;;;;;18.92;9.50;;;;;;;15.90;59.41;95105.06;5051664;28;20175;-72
2023/10/10 01:23:04;;;;;;;20.95;9.63;;;;;;;16.13;58.95;95104.97;5051897;28;20210;-73
2023/10/10 01:28:02;;;;;;;12.05;4.72;;;;;;;16.47;58.18;95113.78;5051134;28;20411;-72
2023/10/10 01:33:15;;;;;;;7.55;2.75;;;;;;;16.91;56.43;95117.44;5051800;28;20961;-70
2023/10/10 01:35:44;;;;;;;10.02;2.55;;;;;;;17.08;55.52;95126.19;5051432;28;20653;-70
2023/10/10 01:38:38;;;;;;;8.65;2.38;;;;;;;17.18;55.13;95130.84;5050180;28;20693;-70
2023/10/10 01:41:14;;;;;;;8.85;2.92;;;;;;;17.27;54.32;95135.50;5050666;28;20430;-71
2023/10/10 01:43:45;;;;;;;7.25;2.90;;;;;;;17.39;53.96;95126.59;5051603;28;20642;-71
2023/10/10 01:46:45;;;;;;;9.27;3.10;;;;;;;17.49;53.25;95129.41;5051005;28;20417;-72
2023/10/10 01:49:05;;;;;;;9.27;2.72;;;;;;;17.54;52.51;95129.47;5048275;28;20464;-72
2023/10/10 01:51:33;;;;;;;6.50;2.72;;;;;;;17.59;52.07;95124.19;5058107;28;20430;-72
2023/10/10 01:53:59;;;;;;;7.88;2.42;;;;;;;17.79;51.69;95139.66;5071559;28;20207;-72
2023/10/10 01:56:27;;;;;;;8.55;2.45;;;;;;;17.82;50.87;95126.63;5070360;28;20499;-71
2023/10/10 01:58:54;;;;;;;6.47;2.50;;;;;;;17.89;50.02;95137.13;5071783;28;20953;-71
2023/10/10 02:01:20;;;;;;;8.18;2.47;;;;;;;17.91;49.27;95140.31;5070704;28;20333;-71
2023/10/10 02:03:47;;;;;;;10.38;2.88;;;;;;;17.92;49.09;95149.91;5070423;28;20528;-71
2023/10/10 02:06:22;;;;;;;11.48;2.17;;;;;;;17.83;48.08;95135.44;5057152;28;20071;-71
2023/10/10 02:08:51;;;;;;;7.30;2.63;;;;;;;17.87;47.72;95155.19;5051167;28;20818;-71
2023/10/10 02:11:20;;;;;;;7.45;3.03;;;;;;;17.77;48.37;95157.75;5050203;28;20411;-70
2023/10/10 02:13:50;;;;;;;7.07;2.72;;;;;;;17.84;47.62;95166.34;5050450;28;20439;-69
2023/10/10 02:16:22;;;;;;;12.65;3.28;;;;;;;17.75;47.83;95141.19;5050890;28;20175;-70
2023/10/10 02:18:54;;;;;;;10.85;3.50;;;;;;;17.91;47.80;95159.78;5051095;28;20171;-70
2023/10/10 02:24:39;;;;;;;11.90;3.20;;;;;;;17.63;48.13;95131.50;5049945;28;21454;-72
2023/10/10 02:27:06;;;;;;;11.10;3.10;;;;;;;17.75;48.87;95162.50;5050090;28;20432;-72
2023/10/10 02:32:18;;;;;;;7.70;3.50;;;;;;;17.78;49.00;95146.03;5070094;28;20421;-72
2023/10/10 02:34:55;;;;;;;12.15;5.78;;;;;;;17.75;48.18;95130.53;5069797;28;20591;-73
2023/10/10 02:40:07;;;;;;;16.42;7.13;;;;;;;17.86;48.19;95143.75;5049864;28;20411;-73
2023/10/10 02:42:33;;;;;;;16.98;7.40;;;;;;;17.86;48.20;95142.94;5063031;28;20545;-74
2023/10/10 02:45:02;;;;;;;28.67;9.80;;;;;;;17.84;48.32;95145.84;5070467;28;20171;-73
2023/10/10 02:47:32;;;;;;;34.85;12.93;;;;;;;17.75;48.95;95128.69;5070245;28;20178;-74
2023/10/10 02:50:10;;;;;;;38.27;15.73;;;;;;;17.73;49.40;95131.59;5065383;28;20409;-73
2023/10/10 02:52:45;;;;;;;16.15;7.68;;;;;;;17.73;49.71;95127.34;5070084;28;20455;-73
2023/10/10 02:55:16;;;;;;;12.85;4.00;;;;;;;17.69;50.66;95129.69;5070236;28;20213;-72
2023/10/10 02:57:41;;;;;;;8.77;2.50;;;;;;;17.68;51.16;95123.56;5070394;28;20384;-72
2023/10/10 03:00:27;;;;;;;12.15;3.25;;;;;;;17.68;51.61;95128.88;5052510;28;21147;-72
2023/10/10 03:02:58;;;;;;;16.50;3.90;;;;;;;17.73;52.54;95130.00;5049765;28;20499;-72
2023/10/10 03:05:40;;;;;;;10.07;3.45;;;;;;;17.70;53.61;95124.13;5050137;28;20191;-69
2023/10/10 03:08:14;;;;;;;9.43;4.55;;;;;;;17.73;53.88;95134.25;5048619;28;20778;-70
2023/10/10 03:10:45;;;;;;;8.43;5.57;;;;;;;17.73;54.41;95128.13;5049698;28;20552;-70
2023/10/10 03:13:30;;;;;;;7.53;4.50;;;;;;;17.83;54.67;95124.78;5049479;28;20642;-70
2023/10/10 03:16:40;;;;;;;7.97;3.60;;;;;;;17.86;55.11;95126.94;5049418;28;20798;-70
2023/10/10 03:21:43;;;;;;;8.45;2.80;;;;;;;17.89;55.11;95129.13;5049690;28;20232;-70
2023/10/10 03:24:36;;;;;;;8.13;3.15;;;;;;;17.93;55.38;95140.88;5049074;28;20175;-70
2023/10/10 03:29:50;;;;;;;7.22;2.38;;;;;;;17.86;56.35;95126.94;5018673;28;20206;-70
2023/10/10 03:32:26;;;;;;;7.10;2.63;;;;;;;17.92;56.65;95145.41;5048509;28;20879;-69
2023/10/10 03:35:06;;;;;;;7.65;2.63;;;;;;;17.92;56.78;95147.25;5048334;28;20438;-72
2023/10/10 03:37:43;;;;;;;6.22;2.42;;;;;;;17.90;56.99;95141.41;5052421;28;20420;-70
2023/10/10 03:40:26;;;;;;;8.57;2.60;;;;;;;17.96;56.77;95143.06;5068063;28;20413;-70
2023/10/10 05:24:09;;;;;;;9.38;3.38;;;;;;;18.42;57.79;95213.66;5051935;28;20929;-73
2023/10/10 05:26:46;;;;;;;23.92;3.60;;;;;;;18.51;57.92;95227.34;5051605;28;20890;-73
2023/10/10 05:29:13;;;;;;;12.80;3.33;;;;;;;18.56;57.78;95228.19;5050902;28;20426;-73
2023/10/10 05:31:38;;;;;;;14.10;2.67;;;;;;;18.54;57.76;95238.31;5067204;28;20171;-72
2023/10/10 05:34:04;;;;;;;7.22;2.88;;;;;;;18.47;57.78;95233.19;5050614;28;20561;-72
2023/10/10 05:36:29;;;;;;;7.45;2.75;;;;;;;18.39;58.08;95238.16;5050694;28;20194;-72
2023/10/10 05:38:55;;;;;;;9.52;3.22;;;;;;;18.39;58.21;95238.16;5051698;28;20179;-71
2023/10/10 05:41:22;;;;;;;12.20;3.75;;;;;;;18.32;58.50;95238.34;5051884;28;20179;-71
2023/10/10 05:43:50;;;;;;;16.30;3.17;;;;;;;18.13;58.87;95221.06;5050528;28;20408;-73
2023/10/10 05:46:16;;;;;;;10.77;3.67;;;;;;;18.25;58.89;95242.25;5051591;28;20213;-73
2023/10/10 05:48:42;;;;;;;8.43;3.15;;;;;;;18.22;58.81;95224.91;5051713;28;20210;-73
2023/10/10 05:51:09;;;;;;;12.05;3.47;;;;;;;18.39;58.41;95238.94;5051390;28;20652;-74
2023/10/10 05:53:35;;;;;;;12.18;3.13;;;;;;;18.53;58.37;95230.56;5051110;28;20199;-74
2023/10/10 05:56:12;;;;;;;9.45;3.30;;;;;;;18.72;58.08;95229.19;5051413;28;20193;-71
2023/10/10 05:58:45;;;;;;;84.75;7.28;;;;;;;19.04;57.17;95235.34;5060058;28;20955;-72
2023/10/10 06:01:14;;;;;;;13.90;3.10;;;;;;;19.37;56.07;95241.50;5071089;28;20182;-72
2023/10/10 06:03:46;;;;;;;31.70;4.90;;;;;;;19.71;55.44;95237.47;5071215;28;20264;-72
2023/10/10 06:06:13;;;;;;;38.50;4.65;;;;;;;19.93;54.21;95251.50;5071074;28;20201;-72
2023/10/10 06:08:42;;;;;;;50.35;7.18;;;;;;;19.85;54.15;95241.28;5070886;28;20179;-73
2023/10/10 06:11:17;;;;;;;8.38;2.70;;;;;;;19.65;54.33;95233.16;5052652;28;20187;-71
2023/10/10 06:13:46;;;;;;;8.40;2.60;;;;;;;19.56;54.80;95240.03;5070926;28;20201;-72
2023/10/10 06:16:14;;;;;;;9.95;2.40;;;;;;;19.41;55.29;95247.91;5070891;28;20184;-71
2023/10/10 06:18:41;;;;;;;32.75;3.72;;;;;;;19.36;55.69;95243.34;5070737;28;20178;-71
2023/10/10 06:21:07;;;;;;;17.60;3.58;;;;;;;19.34;55.90;95242.81;5070730;28;20576;-71
2023/10/10 06:23:35;;;;;;;8.95;2.70;;;;;;;19.25;55.82;95240.84;5070546;28;20645;-72
2023/10/10 06:26:06;;;;;;;9.10;2.90;;;;;;;19.21;56.08;95246.69;5070694;28;20179;-72
2023/10/10 06:28:48;;;;;;;22.98;4.00;;;;;;;19.19;56.36;95245.38;5070687;28;20180;-72
2023/10/10 06:31:19;;;;;;;23.55;4.65;;;;;;;19.30;56.37;95243.56;5070941;28;20177;-71
2023/10/10 06:33:51;;;;;;;18.17;3.95;;;;;;;19.47;56.38;95249.56;5057811;28;20634;-71
2023/10/10 11:24:47;;;;;;;8.50;2.33;;;;;;;20.48;54.62;95244.81;5018666;28;20199;-72
2023/10/10 11:29:42;;;;;;;19.58;4.32;;;;;;;20.56;54.16;95230.13;5044992;28;20616;-71
2023/10/10 11:32:08;;;;;;;6.78;2.30;;;;;;;20.56;53.95;95236.28;5029501;28;20184;-69
2023/10/10 11:34:46;;;;;;;9.65;2.33;;;;;;;20.58;53.95;95231.44;5028476;28;20211;-70
2023/10/10 11:37:14;;;;;;;2.70;1.95;;;;;;;20.58;53.71;95228.00;5029676;28;20179;-70
2023/10/10 11:39:49;;;;;;;6.35;2.78;;;;;;;20.48;53.74;95234.13;5011721;28;20226;-71
2023/10/10 11:42:33;;;;;;;4.13;1.92;;;;;;;20.49;53.70;95232.25;5039315;28;20183;-71
2023/10/10 11:45:07;;;;;;;3.30;2.50;;;;;;;20.43;54.37;95238.63;5029468;28;20210;-72
2023/10/10 11:47:42;;;;;;;10.10;2.53;;;;;;;20.44;54.28;95234.88;5043912;28;20931;-72
2023/10/10 11:50:11;;;;;;;8.00;3.10;;;;;;;20.41;54.23;95222.84;5048547;28;20504;-70
2023/10/10 11:52:55;;;;;;;6.50;2.40;;;;;;;20.44;54.10;95234.88;5048537;28;20415;-70
2023/10/10 11:55:24;;;;;;;9.20;3.00;;;;;;;20.39;54.18;95235.69;5048306;28;20438;-71
2023/10/10 11:57:51;;;;;;;11.85;3.15;;;;;;;20.34;53.83;95208.91;5063458;28;20437;-71
2023/10/10 12:00:29;;;;;;;20.25;3.53;;;;;;;20.50;53.92;95228.47;5063529;28;20175;-71
2023/10/10 12:02:57;;;;;;;8.20;2.60;;;;;;;20.52;53.76;95227.16;5048968;28;20661;-72
2023/10/10 12:08:00;;;;;;;26.95;5.25;;;;;;;20.49;53.64;95229.56;5048658;28;20217;-71
2023/10/10 12:13:12;;;;;;;10.73;2.88;;;;;;;20.30;54.31;95213.16;5047590;28;20403;-70
2023/10/10 12:15:44;;;;;;;9.07;2.40;;;;;;;20.35;53.99;95226.56;5050429;28;20210;-70
2023/10/10 12:18:10;;;;;;;9.60;2.92;;;;;;;20.38;54.14;95225.25;5068584;28;20645;-70
2023/10/10 12:20:44;;;;;;;13.80;2.80;;;;;;;20.34;53.86;95228.44;5068276;28;20523;-71
2023/10/10 12:23:13;;;;;;;6.63;2.50;;;;;;;20.32;53.59;95229.75;5067689;28;20917;-70
2023/10/10 12:25:41;;;;;;;11.07;2.88;;;;;;;20.34;53.71;95230.31;5068332;28;20409;-71
2023/10/10 12:28:12;;;;;;;9.75;3.13;;;;;;;20.38;53.56;95231.41;5068576;28;20621;-72
2023/10/10 12:30:41;;;;;;;6.30;2.72;;;;;;;20.40;52.81;95231.94;5053832;28;21041;-71
2023/10/10 12:33:15;;;;;;;6.55;2.72;;;;;;;20.38;52.75;95228.72;5060631;28;20481;-71
2023/10/10 12:35:47;;;;;;;9.43;4.22;;;;;;;20.44;52.07;95226.88;5049563;28;20789;-71
2023/10/10 12:38:23;;;;;;;20.40;5.93;;;;;;;20.41;52.18;95222.06;5034783;28;20423;-69
2023/10/10 12:40:52;;;;;;;17.70;7.30;;;;;;;20.46;52.23;95230.09;5030082;28;20865;-70
2023/10/10 12:43:18;;;;;;;11.73;7.25;;;;;;;20.51;52.12;95230.09;5045557;28;20256;-70
2023/10/10 12:45:56;;;;;;;12.25;4.68;;;;;;;20.50;52.71;95225.81;5063476;28;20224;-71
2023/10/10 12:48:21;;;;;;;13.75;3.47;;;;;;;20.44;52.34;95233.03;5056192;28;20413;-70
2023/10/10 12:50:48;;;;;;;9.50;2.80;;;;;;;20.37;52.69;95229.00;5060525;28;20417;-71
2023/10/10 12:53:21;;;;;;;11.23;3.15;;;;;;;20.30;53.11;95227.34;5055214;28;20186;-70
2023/10/10 12:55:52;;;;;;;8.80;3.10;;;;;;;20.37;53.41;95221.78;5063541;28;20221;-70
2023/10/10 12:58:22;;;;;;;13.45;2.70;;;;;;;20.39;53.25;95221.50;5065583;28;21048;-71
2023/10/10 13:00:51;;;;;;;9.90;2.90;;;;;;;20.42;53.76;95229.78;5059405;28;20474;-71
2023/10/10 13:03:19;;;;;;;9.65;2.80;;;;;;;20.31;53.32;95212.91;5067784;28;20178;-72
2023/10/10 13:05:48;;;;;;;11.40;3.00;;;;;;;20.36;53.93;95225.50;5066955;28;20413;-72
2023/10/10 13:08:15;;;;;;;7.53;2.80;;;;;;;20.33;53.74;95220.63;5054974;28;20487;-72
2023/10/10 13:10:42;;;;;;;8.37;2.63;;;;;;;20.41;53.43;95222.84;5061937;28;20966;-71
2023/10/10 13:13:07;;;;;;;7.25;2.78;;;;;;;20.40;53.15;95228.47;5056807;28;20413;-71
2023/10/10 13:15:47;;;;;;;7.07;2.40;;;;;;;20.41;53.38;95222.84;5055700;28;20431;-71
2023/10/10 13:18:19;;;;;;;9.50;2.80;;;;;;;20.43;53.42;95217.22;5054604;28;20416;-71
2023/10/10 13:20:50;;;;;;;16.33;3.45;;;;;;;20.48;53.36;95225.28;5065435;28;20170;-71
2023/10/10 13:23:18;;;;;;;13.90;3.25;;;;;;;20.53;53.10;95227.97;5055152;28;20171;-70
2023/10/10 13:25:44;;;;;;;9.50;2.92;;;;;;;20.44;53.32;95214.28;5050822;28;20460;-69
2023/10/10 13:28:17;;;;;;;5.35;2.25;;;;;;;20.53;53.49;95227.97;5050299;28;20168;-70
2023/10/10 13:30:43;;;;;;;11.97;3.27;;;;;;;20.55;53.34;95223.16;5050141;28;20403;-70
2023/10/10 13:33:08;;;;;;;9.20;3.47;;;;;;;20.55;53.63;95229.31;5053132;28;20435;-71
2023/10/10 13:35:37;;;;;;;8.23;2.85;;;;;;;20.59;53.59;95225.03;5053760;28;20272;-71
2023/10/10 13:38:05;;;;;;;9.82;3.33;;;;;;;20.56;53.91;95222.91;5068734;28;20171;-70
2023/10/10 13:40:37;;;;;;;6.55;2.83;;;;;;;20.53;54.12;95226.09;5062893;28;20415;-72
2023/10/10 13:43:08;;;;;;;7.28;3.45;;;;;;;20.55;53.85;95220.47;5058436;28;20326;-72
2023/10/10 13:45:38;;;;;;;9.50;3.50;;;;;;;20.57;54.16;95224.50;5066278;28;20562;-73
2023/10/10 13:48:08;;;;;;;19.20;3.58;;;;;;;20.55;54.13;95229.31;5052153;28;20178;-72
2023/10/10 13:50:43;;;;;;;10.73;3.13;;;;;;;20.51;54.39;95233.56;5049270;28;20420;-72
2023/10/10 13:53:13;;;;;;;12.70;3.55;;;;;;;20.27;54.42;95197.63;5049340;28;20422;-72
2023/10/10 13:55:44;;;;;;;6.10;2.90;;;;;;;20.45;54.10;95213.22;5065767;28;20810;-69
2023/10/10 13:58:15;;;;;;;4.78;2.33;;;;;;;20.52;53.48;95221.81;5053391;28;20700;-71
2023/10/10 14:00:43;;;;;;;10.82;2.80;;;;;;;20.48;53.55;95230.63;5061162;28;20904;-70
2023/10/10 14:03:14;;;;;;;7.50;2.88;;;;;;;20.39;54.14;95225.00;5056822;28;20408;-70
2023/10/10 14:06:00;;;;;;;7.70;2.90;;;;;;;20.51;53.27;95232.75;5065431;28;20428;-70
2023/10/10 14:08:26;;;;;;;11.32;2.60;;;;;;;20.55;53.05;95223.16;5061070;28;20929;-72
2023/10/10 14:10:53;;;;;;;4.68;2.28;;;;;;;20.56;53.30;95230.13;5058635;28;20413;-73
2023/10/10 14:13:19;;;;;;;6.75;2.30;;;;;;;20.51;53.24;95235.44;5055272;28;20422;-72
2023/10/10 14:16:01;;;;;;;7.07;2.53;;;;;;;20.53;53.49;95242.16;5051236;28;20207;-73
2023/10/10 14:18:42;;;;;;;7.70;2.58;;;;;;;20.55;53.09;95239.22;5062413;28;20433;-73
2023/10/10 14:21:11;;;;;;;23.02;4.32;;;;;;;20.52;53.45;95237.84;5060901;28;20476;-72
2023/10/10 14:23:40;;;;;;;10.02;2.80;;;;;;;20.49;53.25;95233.06;5052943;28;20434;-72
2023/10/10 14:26:13;;;;;;;6.28;2.38;;;;;;;20.44;53.74;95229.53;5063935;28;20421;-72
2023/10/10 14:28:50;;;;;;;8.17;2.80;;;;;;;20.46;54.08;95244.28;5057043;28;20431;-72
2023/10/10 14:31:27;;;;;;;8.10;2.70;;;;;;;20.42;53.78;95253.06;5055394;28;21770;-71
2023/10/10 14:33:54;;;;;;;13.05;2.78;;;;;;;20.27;54.85;95251.13;5065327;28;20475;-72
2023/10/10 14:36:21;;;;;;;7.78;2.42;;;;;;;20.28;54.63;95250.06;5054989;28;20185;-71
2023/10/10 14:38:51;;;;;;;7.53;2.97;;;;;;;20.34;54.90;95249.84;5036567;28;20431;-71
2023/10/10 14:41:21;;;;;;;7.35;2.63;;;;;;;20.36;54.33;95252.25;5063130;28;20416;-70
2023/10/10 14:43:48;;;;;;;13.02;3.05;;;;;;;20.46;54.05;95251.50;5052788;28;20224;-72
2023/10/10 14:46:27;;;;;;;14.90;3.15;;;;;;;20.29;54.71;95262.34;5062813;28;20411;-72
2023/10/10 14:49:00;;;;;;;6.38;2.67;;;;;;;20.36;54.51;95260.28;5063802;28;20174;-73
2023/10/10 14:51:33;;;;;;;4.25;2.25;;;;;;;20.32;54.76;95267.97;5054170;28;20164;-72
2023/10/10 14:54:09;;;;;;;9.00;3.00;;;;;;;20.11;54.87;95254.78;5064588;28;20495;-72
2023/10/10 14:56:36;;;;;;;6.78;4.03;;;;;;;20.27;55.10;95269.84;5049809;28;20356;-70
2023/10/10 14:59:04;;;;;;;8.90;3.35;;;;;;;20.32;54.95;95275.22;5050443;28;20186;-71
2023/10/10 15:01:34;;;;;;;9.05;3.47;;;;;;;20.36;54.89;95272.84;5066589;28;20413;-72
2023/10/10 15:04:02;;;;;;;8.30;3.42;;;;;;;20.36;55.00;95270.16;5068713;28;21066;-72
2023/10/10 15:06:28;;;;;;;10.00;2.90;;;;;;;20.40;55.14;95280.09;5069460;28;20562;-72
2023/10/10 15:08:55;;;;;;;13.00;2.58;;;;;;;20.42;54.88;95285.97;5062368;28;20186;-70
2023/10/10 15:11:27;;;;;;;16.38;3.85;;;;;;;20.32;55.41;95283.25;5051997;28;20450;-72
2023/10/10 15:13:57;;;;;;;8.68;2.65;;;;;;;20.34;55.56;95294.50;5048943;28;20202;-72
2023/10/10 15:16:23;;;;;;;5.32;2.63;;;;;;;20.34;55.48;95286.47;5051061;28;20411;-71
2023/10/10 15:18:54;;;;;;;7.57;3.05;;;;;;;20.38;54.77;95294.78;5050266;28;20204;-70
2023/10/10 15:21:20;;;;;;;9.15;2.88;;;;;;;20.38;55.33;95303.63;5049577;28;20170;-71
2023/10/10 15:23:46;;;;;;;11.10;2.88;;;;;;;20.40;55.03;95304.16;5049420;28;20642;-70
2023/10/10 15:26:19;;;;;;;12.80;3.05;;;;;;;20.34;55.12;95310.53;5067227;28;20243;-70
2023/10/10 15:28:45;;;;;;;5.13;2.40;;;;;;;20.20;55.20;95296.00;5055689;28;20189;-71
2023/10/10 15:31:12;;;;;;;11.70;3.90;;;;;;;20.25;55.74;95312.88;5052972;28;20592;-70
2023/10/10 15:33:43;;;;;;;13.07;3.13;;;;;;;20.22;56.17;95315.28;5063816;28;20182;-72
2023/10/10 15:36:11;;;;;;;9.52;2.30;;;;;;;20.15;56.06;95315.47;5058886;28;20183;-72
2023/10/10 15:38:40;;;;;;;7.65;3.10;;;;;;;20.05;56.16;95310.09;5040071;28;20560;-72
2023/10/10 15:41:14;;;;;;;11.43;2.55;;;;;;;20.07;56.11;95323.19;5059510;28;20181;-73
2023/10/10 15:43:46;;;;;;;9.73;3.38;;;;;;;20.02;56.38;95329.31;5058748;28;20657;-72
2023/10/10 15:46:17;;;;;;;10.38;3.00;;;;;;;19.71;56.57;95282.91;5057717;28;20938;-72
2023/10/10 15:48:51;;;;;;;14.68;2.97;;;;;;;19.93;56.98;95329.00;5055990;28;20415;-71
2023/10/10 15:51:20;;;;;;;8.80;3.05;;;;;;;19.87;56.40;95310.53;5055514;28;20193;-73
2023/10/10 15:53:47;;;;;;;11.52;3.40;;;;;;;19.95;56.61;95332.22;5061969;28;20414;-72
2023/10/10 15:56:17;;;;;;;10.43;3.13;;;;;;;19.66;56.52;95298.88;5050553;28;20726;-70
2023/10/10 15:58:49;;;;;;;9.27;2.90;;;;;;;19.81;56.70;95328.38;5057889;28;20182;-71
2023/10/10 16:01:29;;;;;;;8.10;2.97;;;;;;;19.35;56.96;95275.66;5055235;28;20182;-71
2023/10/10 17:20:41;;;;;;;24.05;5.40;;;;;;;18.05;65.20;95376.03;5053946;28;20248;-71
2023/10/10 17:23:06;;;;;;;23.25;5.35;;;;;;;17.98;65.57;95378.06;5072251;28;20174;-72
2023/10/10 17:25:34;;;;;;;27.67;6.88;;;;;;;17.96;65.62;95386.31;5072100;28;20177;-71
2023/10/10 17:28:00;;;;;;;36.63;7.72;;;;;;;17.89;65.97;95385.66;5070678;28;20170;-70
2023/10/10 17:30:27;;;;;;;56.07;20.50;;;;;;;17.73;66.84;95393.66;5062664;28;20800;-71
2023/10/10 17:32:53;;;;;;;47.20;15.50;;;;;;;17.63;67.00;95392.44;5071924;28;20411;-71
2023/10/10 17:35:19;;;;;;;36.08;10.40;;;;;;;17.58;67.47;95386.19;5071937;28;20194;-71
2023/10/10 17:37:44;;;;;;;34.65;10.90;;;;;;;17.53;67.72;95384.25;5071867;28;20227;-72
2023/10/10 17:40:13;;;;;;;22.80;8.52;;;;;;;17.49;67.66;95380.44;5072211;28;20179;-72
2023/10/10 17:42:47;;;;;;;33.63;11.02;;;;;;;17.38;68.05;95368.03;5072023;28;20573;-73
2023/10/10 17:45:12;;;;;;;36.15;9.32;;;;;;;17.43;68.02;95389.41;5071711;28;20227;-71
2023/10/10 17:47:40;;;;;;;30.98;10.65;;;;;;;17.38;68.23;95389.31;5067287;28;20186;-71
2023/10/10 17:50:06;;;;;;;50.67;9.20;;;;;;;17.25;68.64;95384.28;5070312;28;20269;-70
2023/10/10 17:52:32;;;;;;;23.63;6.68;;;;;;;17.22;69.06;95379.41;5056128;28;20239;-70
2023/10/10 17:55:01;;;;;;;46.65;8.02;;;;;;;17.16;68.99;95394.50;5062384;28;20194;-70
2023/10/10 17:57:26;;;;;;;47.38;11.32;;;;;;;17.13;69.33;95383.50;5050262;28;20183;-70
2023/10/10 18:07:31;;;;;;;65.57;23.15;;;;;;;16.81;70.83;95396.47;5039635;28;20498;-71
2023/10/10 18:09:56;;;;;;;54.25;17.08;;;;;;;16.74;70.91;95379.84;5032289;28;20237;-69
2023/10/10 18:22:29;;;;;;;68.75;28.70;;;;;;;16.58;71.36;95398.13;5038107;28;20262;-70
